createdAt,value
2018-10-21T00:03:06.956Z,17.50
2018-10-21T00:08:10.486Z,20.37
2018-10-21T00:13:14.039Z,20.83
2018-10-21T00:18:17.617Z,18.67
2018-10-21T00:23:21.136Z,21.73
2018-10-21T00:28:24.886Z,24.13
2018-10-21T00:33:28.415Z,23.03
2018-10-21T00:38:32.119Z,22.53
2018-10-21T00:43:35.722Z,22.37
2018-10-21T00:48:39.518Z,22.40
2018-10-21T00:53:43.098Z,23.07
2018-10-21T00:58:46.624Z,19.87
2018-10-21T01:03:50.228Z,22.87
2018-10-21T01:08:53.899Z,22.27
2018-10-21T01:13:57.391Z,20.63
2018-10-21T01:19:01.255Z,22.13
2018-10-21T01:24:04.842Z,24.77
2018-10-21T01:29:08.415Z,25.17
2018-10-21T01:34:11.977Z,25.53
2018-10-21T01:39:15.561Z,23.23
2018-10-21T01:44:19.092Z,22.27
2018-10-21T01:49:22.649Z,22.43
2018-10-21T01:54:26.406Z,21.87
2018-10-21T01:59:29.909Z,22.90
2018-10-21T02:04:33.517Z,23.63
2018-10-21T02:09:37.020Z,22.43
2018-10-21T02:14:40.568Z,23.83
2018-10-21T02:19:44.275Z,23.10
2018-10-21T02:24:47.807Z,21.10
2018-10-21T02:29:51.321Z,22.83
2018-10-21T02:34:54.831Z,22.60
2018-10-21T02:39:58.357Z,23.20
2018-10-21T02:45:01.919Z,21.43
2018-10-21T02:50:06.018Z,22.03
2018-10-21T02:55:09.548Z,23.30
2018-10-21T03:00:19.223Z,22.00
2018-10-21T03:05:22.761Z,25.53
2018-10-21T03:10:26.229Z,25.27
2018-10-21T03:15:29.754Z,26.47
2018-10-21T03:20:33.307Z,26.13
2018-10-21T03:25:36.900Z,26.20
2018-10-21T03:30:40.413Z,26.23
2018-10-21T03:35:55.707Z,24.87
2018-10-21T03:40:59.218Z,24.83
2018-10-21T03:46:03.135Z,23.87
2018-10-21T03:51:06.933Z,25.30
2018-10-21T03:56:10.762Z,26.83
2018-10-21T04:01:14.361Z,25.63
2018-10-21T04:06:17.842Z,24.47
2018-10-21T04:11:21.449Z,22.83
2018-10-21T04:16:25.008Z,23.00
2018-10-21T04:21:28.531Z,21.53
2018-10-21T04:26:32.029Z,20.27
2018-10-21T04:31:35.728Z,22.20
2018-10-21T04:36:39.217Z,23.63
2018-10-21T04:41:42.825Z,24.33
2018-10-21T04:46:46.347Z,23.23
2018-10-21T04:51:49.860Z,21.83
2018-10-21T04:56:53.469Z,22.63
2018-10-21T05:01:57.271Z,24.50
2018-10-21T05:07:00.783Z,20.33
2018-10-21T05:12:04.333Z,20.43
2018-10-21T05:17:07.857Z,22.43
2018-10-21T05:22:11.387Z,23.50
2018-10-21T05:27:15.049Z,21.63
2018-10-21T05:32:18.542Z,21.30
2018-10-21T05:37:22.171Z,20.70
2018-10-21T05:42:26.112Z,21.30
2018-10-21T05:47:29.719Z,22.87
2018-10-21T05:52:33.646Z,24.53
2018-10-21T05:57:37.239Z,22.57
2018-10-21T06:02:40.760Z,25.80
2018-10-21T06:07:44.333Z,24.20
2018-10-21T06:12:47.838Z,25.10
2018-10-21T06:17:51.374Z,25.53
2018-10-21T06:22:54.936Z,28.03
2018-10-21T06:27:58.475Z,25.20
2018-10-21T06:33:02.045Z,23.67
2018-10-21T06:38:06.074Z,24.10
2018-10-21T06:43:09.692Z,24.33
2018-10-21T06:48:13.364Z,25.37
2018-10-21T06:53:16.952Z,22.57
2018-10-21T06:58:20.493Z,24.77
2018-10-21T07:03:24.438Z,26.43
2018-10-21T07:08:27.943Z,23.57
2018-10-21T07:13:33.658Z,26.03
2018-10-21T07:18:37.308Z,20.50
2018-10-21T07:23:40.907Z,20.57
2018-10-21T07:28:44.418Z,21.63
2018-10-21T07:33:47.944Z,21.73
2018-10-21T07:38:51.471Z,23.93
2018-10-21T07:43:55.025Z,20.97
2018-10-21T07:48:58.580Z,21.00
2018-10-21T07:54:02.062Z,23.57
2018-10-21T07:59:05.700Z,23.57
2018-10-21T08:04:09.303Z,24.97
2018-10-21T08:09:13.280Z,23.20
2018-10-21T08:14:16.798Z,24.70
2018-10-21T08:19:20.297Z,23.77
2018-10-21T08:24:23.776Z,23.23
2018-10-21T08:29:27.318Z,23.47
2018-10-21T08:34:30.837Z,21.03
2018-10-21T08:39:34.368Z,22.07
2018-10-21T08:44:37.964Z,20.20
2018-10-21T08:49:41.572Z,18.00
2018-10-21T08:54:45.119Z,21.40
2018-10-21T08:59:48.633Z,21.57
2018-10-21T09:04:52.249Z,21.03
2018-10-21T09:09:55.938Z,19.97
2018-10-21T09:14:59.505Z,21.87
2018-10-21T09:20:03.054Z,22.63
2018-10-21T09:25:06.996Z,19.83
2018-10-21T09:35:29.507Z,21.30
2018-10-21T09:40:33.017Z,20.17
2018-10-21T09:45:36.669Z,22.00
2018-10-21T09:50:43.350Z,19.17
2018-10-21T09:55:46.944Z,21.30
2018-10-21T10:00:55.804Z,19.43
2018-10-21T10:05:59.346Z,20.70
2018-10-21T10:11:03.042Z,20.57
2018-10-21T10:16:06.508Z,22.27
2018-10-21T10:21:10.006Z,21.07
2018-10-21T10:26:13.533Z,20.20
2018-10-21T10:31:17.110Z,20.30
2018-10-21T10:36:20.757Z,18.17
2018-10-21T10:41:24.192Z,19.33
2018-10-21T10:46:27.773Z,18.00
2018-10-21T10:51:31.307Z,18.73
2018-10-21T10:56:34.865Z,22.93
2018-10-21T11:01:38.380Z,21.00
2018-10-21T11:06:42.000Z,22.37
2018-10-21T11:11:45.500Z,25.27
2018-10-21T11:16:49.009Z,19.80
2018-10-21T11:21:52.554Z,17.33
2018-10-21T11:26:56.052Z,18.83
2018-10-21T11:31:59.581Z,18.47
2018-10-21T11:37:03.169Z,16.70
2018-10-21T11:42:07.002Z,19.07
2018-10-21T11:47:10.536Z,17.20
2018-10-21T11:52:14.254Z,17.13
2018-10-21T11:57:17.726Z,18.23
2018-10-21T12:02:21.417Z,18.10
2018-10-21T12:07:24.957Z,16.60
2018-10-21T12:12:28.692Z,16.80
2018-10-21T12:17:32.191Z,17.83
2018-10-21T12:22:35.803Z,16.60
2018-10-21T12:27:39.284Z,16.20
2018-10-21T12:32:42.788Z,17.10
2018-10-21T12:37:46.372Z,16.43
2018-10-21T12:42:49.862Z,13.93
2018-10-21T12:47:53.369Z,13.20
2018-10-21T12:52:56.970Z,11.73
2018-10-21T12:58:00.622Z,10.07
2018-10-21T13:03:04.379Z,8.57
2018-10-21T13:08:07.954Z,9.77
2018-10-21T13:13:11.481Z,9.43
2018-10-21T13:18:14.997Z,9.70
2018-10-21T13:23:18.529Z,8.40
2018-10-21T13:28:22.206Z,7.17
2018-10-21T13:33:25.916Z,6.97
2018-10-21T13:38:29.422Z,6.13
2018-10-21T13:43:32.926Z,4.90
2018-10-21T13:48:36.413Z,5.00
2018-10-21T13:53:39.929Z,4.47
2018-10-21T13:58:43.511Z,3.37
2018-10-21T14:03:47.284Z,3.47
2018-10-21T14:08:50.841Z,3.20
2018-10-21T14:13:54.333Z,4.23
2018-10-21T14:18:57.833Z,3.40
2018-10-21T14:24:01.585Z,3.67
2018-10-21T14:29:05.072Z,3.43
2018-10-21T14:34:08.657Z,3.63
2018-10-21T14:39:13.618Z,3.53
2018-10-21T14:44:17.186Z,3.67
2018-10-21T14:49:20.672Z,3.63
2018-10-21T14:54:24.535Z,3.43
2018-10-21T14:59:28.068Z,3.37
2018-10-21T15:04:31.682Z,4.53
2018-10-21T15:09:35.521Z,4.13
2018-10-21T15:14:39.239Z,4.10
2018-10-21T15:19:43.584Z,3.63
2018-10-21T15:24:47.391Z,3.27
2018-10-21T15:29:50.957Z,3.33
2018-10-21T15:34:54.615Z,3.23
2018-10-21T15:39:58.226Z,2.43
2018-10-21T15:45:01.913Z,2.70
2018-10-21T15:50:06.078Z,3.30
2018-10-21T15:55:10.117Z,2.73
2018-10-21T16:00:15.717Z,3.07
2018-10-21T16:05:24.053Z,3.57
2018-10-21T16:10:27.597Z,2.63
2018-10-21T16:15:31.102Z,2.93
2018-10-21T16:20:34.763Z,3.30
2018-10-21T16:25:38.440Z,4.12
2018-10-21T16:30:41.922Z,4.03
2018-10-21T16:35:45.508Z,6.00
2018-10-21T16:40:49.007Z,6.73
2018-10-21T16:45:52.525Z,5.53
2018-10-21T16:50:56.126Z,5.33
2018-10-21T16:55:59.848Z,3.90
2018-10-21T17:01:03.768Z,4.23
2018-10-21T17:06:07.237Z,3.77
2018-10-21T17:11:10.878Z,4.03
2018-10-21T17:16:14.574Z,5.07
2018-10-21T17:21:18.150Z,3.77
2018-10-21T17:26:21.795Z,4.17
2018-10-21T17:31:25.436Z,4.23
2018-10-21T17:36:29.148Z,5.00
2018-10-21T17:41:32.732Z,4.47
2018-10-21T17:46:36.836Z,8.40
2018-10-21T17:51:40.805Z,9.97
2018-10-21T17:56:49.824Z,7.20
2018-10-21T18:01:53.591Z,7.20
2018-10-21T18:06:57.238Z,7.83
2018-10-21T18:12:00.880Z,7.00
2018-10-21T18:17:04.774Z,4.83
2018-10-21T18:22:08.998Z,5.00
2018-10-21T18:27:12.599Z,5.30
2018-10-21T18:32:16.161Z,5.20
2018-10-21T18:37:19.992Z,5.17
2018-10-21T18:42:23.647Z,5.50
2018-10-21T18:47:27.286Z,6.90
2018-10-21T18:52:30.879Z,5.47
2018-10-21T18:57:34.443Z,6.80
2018-10-21T19:02:38.071Z,6.27
2018-10-21T19:07:41.912Z,6.93
2018-10-21T19:12:45.565Z,6.97
2018-10-21T19:17:50.006Z,6.60
2018-10-21T19:22:53.620Z,6.47
2018-10-21T19:27:57.266Z,6.67
2018-10-21T19:33:01.764Z,7.40
2018-10-21T19:38:05.587Z,6.93
2018-10-21T19:43:09.462Z,5.87
2018-10-21T19:48:14.602Z,6.90
2018-10-21T19:53:18.160Z,6.67
2018-10-21T19:58:21.918Z,6.40
2018-10-21T20:03:26.128Z,6.90
2018-10-21T20:08:29.804Z,6.50
2018-10-21T20:13:33.566Z,5.80
2018-10-21T20:18:37.146Z,7.47
2018-10-21T20:23:40.615Z,7.57
2018-10-21T20:28:44.184Z,9.67
2018-10-21T20:33:47.770Z,11.00
2018-10-21T20:38:51.525Z,19.23
2018-10-21T20:43:55.074Z,16.07
2018-10-21T20:48:58.641Z,14.07
2018-10-21T20:54:02.307Z,13.47
2018-10-21T20:59:06.155Z,11.27
2018-10-21T21:04:10.163Z,11.97
2018-10-21T21:09:13.795Z,9.63
2018-10-21T21:14:17.379Z,9.10
2018-10-21T21:19:20.913Z,7.77
2018-10-21T21:24:24.471Z,8.73
2018-10-21T21:29:28.123Z,8.93
2018-10-21T21:34:31.694Z,8.50
2018-10-21T21:39:35.453Z,8.50
2018-10-21T21:44:38.961Z,10.03
2018-10-21T21:49:45.373Z,8.07
2018-10-21T21:54:48.877Z,7.97
2018-10-21T21:59:52.410Z,8.00
2018-10-21T22:04:55.953Z,8.60
2018-10-21T22:09:59.483Z,11.10
2018-10-21T22:15:03.047Z,11.10
2018-10-21T22:20:06.868Z,10.70
2018-10-21T22:25:10.882Z,11.30
2018-10-21T22:35:40.268Z,13.00
2018-10-21T22:40:44.406Z,13.10
2018-10-21T22:45:47.962Z,11.07
2018-10-21T22:50:51.564Z,10.83
2018-10-21T22:55:55.158Z,12.33
2018-10-21T23:00:58.929Z,12.83
2018-10-21T23:06:02.491Z,13.57
2018-10-21T23:11:06.326Z,14.30
2018-10-21T23:16:10.207Z,12.23
2018-10-21T23:21:13.762Z,13.67
2018-10-21T23:26:17.400Z,16.00
2018-10-21T23:31:21.002Z,14.90
2018-10-21T23:36:24.797Z,13.90
2018-10-21T23:41:28.553Z,12.40
2018-10-21T23:46:32.281Z,13.27
2018-10-21T23:51:35.794Z,14.73
2018-10-21T23:56:39.304Z,13.20
